createdAt,value
2022-11-29T00:01:41.167Z,33.08
2022-11-29T00:04:08.527Z,32.22
2022-11-29T00:06:36.005Z,29.23
2022-11-29T00:09:11.854Z,30.45
2022-11-29T00:12:04.822Z,32.47
2022-11-29T00:14:33.060Z,32.85
2022-11-29T00:17:04.660Z,34.38
2022-11-29T00:19:33.997Z,32.05
2022-11-29T00:22:01.969Z,32.15
2022-11-29T00:24:31.814Z,33.45
2022-11-29T00:26:59.198Z,32.30
2022-11-29T00:29:27.550Z,33.63
2022-11-29T00:31:54.508Z,32.90
2022-11-29T00:34:22.186Z,28.20
2022-11-29T00:36:51.452Z,34.42
2022-11-29T00:39:20.905Z,36.47
2022-11-29T00:41:48.384Z,35.25
2022-11-29T00:44:19.875Z,36.25
2022-11-29T00:46:47.755Z,37.03
2022-11-29T00:49:15.058Z,37.00
2022-11-29T00:51:42.271Z,37.47
2022-11-29T00:54:10.716Z,34.03
2022-11-29T00:56:37.685Z,38.85
2022-11-29T00:59:04.853Z,33.20
2022-11-29T01:01:32.127Z,37.50
2022-11-29T01:04:01.254Z,39.63
2022-11-29T01:06:29.569Z,34.90
2022-11-29T01:08:56.550Z,38.58
2022-11-29T01:11:26.925Z,38.17
2022-11-29T01:13:57.903Z,40.45
2022-11-29T01:16:25.262Z,40.22
2022-11-29T01:18:53.526Z,38.75
2022-11-29T01:21:23.047Z,41.03
2022-11-29T01:23:53.147Z,39.50
2022-11-29T01:26:31.580Z,42.15
2022-11-29T01:29:01.003Z,30.55
2022-11-29T01:31:37.843Z,40.15
2022-11-29T01:34:06.048Z,36.65
2022-11-29T01:36:33.697Z,40.50
2022-11-29T01:39:03.981Z,43.42
2022-11-29T01:41:34.607Z,39.40
2022-11-29T01:44:13.981Z,39.58
2022-11-29T01:46:43.770Z,37.85
2022-11-29T01:49:19.870Z,43.42
2022-11-29T01:51:51.814Z,38.95
2022-11-29T01:54:20.468Z,39.45
2022-11-29T01:56:50.821Z,40.70
2022-11-29T01:59:22.362Z,41.20
2022-11-29T02:01:49.728Z,42.40
2022-11-29T02:04:19.019Z,38.88
2022-11-29T02:06:46.836Z,32.10
2022-11-29T02:09:20.029Z,38.95
2022-11-29T02:12:21.612Z,43.15
2022-11-29T02:15:08.317Z,37.22
2022-11-29T02:18:02.861Z,43.47
2022-11-29T02:21:24.679Z,45.75
2022-11-29T02:24:26.933Z,37.80
2022-11-29T02:27:17.227Z,45.72
2022-11-29T02:30:03.231Z,44.03
2022-11-29T02:33:00.720Z,46.08
2022-11-29T02:35:54.341Z,44.42
2022-11-29T02:39:08.828Z,40.92
2022-11-29T02:42:26.314Z,46.53
2022-11-29T02:45:25.391Z,44.42
2022-11-29T02:47:56.841Z,41.08
2022-11-29T02:50:36.892Z,43.42
2022-11-29T02:53:23.234Z,43.92
2022-11-29T02:56:11.257Z,38.13
2022-11-29T02:59:01.752Z,38.05
2022-11-29T03:01:52.543Z,37.47
2022-11-29T03:04:34.284Z,41.97
2022-11-29T03:07:25.765Z,41.70
2022-11-29T03:10:17.727Z,34.95
2022-11-29T03:12:53.919Z,36.90
2022-11-29T03:15:43.105Z,43.30
2022-11-29T03:18:56.314Z,40.15
2022-11-29T03:21:23.397Z,43.10
2022-11-29T03:23:59.145Z,34.97
2022-11-29T03:26:51.925Z,45.38
2022-11-29T03:29:28.140Z,46.03
2022-11-29T03:32:06.355Z,44.50
2022-11-29T03:34:56.981Z,43.47
2022-11-29T03:37:47.578Z,45.88
2022-11-29T03:40:21.583Z,45.75
2022-11-29T03:42:57.177Z,43.33
2022-11-29T03:45:44.977Z,45.33
2022-11-29T03:48:17.752Z,41.92
2022-11-29T03:50:56.575Z,44.88
2022-11-29T03:54:03.115Z,35.90
2022-11-29T03:56:40.629Z,45.10
2022-11-29T03:59:42.081Z,45.55
2022-11-29T04:02:41.316Z,45.42
2022-11-29T04:05:31.156Z,48.13
2022-11-29T04:08:36.557Z,44.17
2022-11-29T04:11:36.241Z,39.22
2022-11-29T04:14:24.290Z,44.35
2022-11-29T04:17:23.144Z,39.35
2022-11-29T04:20:02.121Z,43.55
2022-11-29T04:22:47.576Z,42.08
2022-11-29T04:25:14.767Z,43.92
2022-11-29T04:28:06.637Z,41.80
2022-11-29T04:31:02.165Z,38.97
2022-11-29T04:33:51.418Z,44.35
2022-11-29T04:36:43.819Z,40.47
2022-11-29T04:39:14.944Z,39.50
2022-11-29T04:42:09.299Z,41.47
2022-11-29T04:45:00.458Z,37.40
2022-11-29T04:47:59.179Z,43.17
2022-11-29T04:50:44.953Z,42.85
2022-11-29T04:53:27.915Z,42.15
2022-11-29T04:56:40.043Z,27.58
2022-11-29T04:59:16.136Z,44.55
2022-11-29T05:02:20.933Z,45.35
2022-11-29T05:05:13.801Z,43.97
2022-11-29T05:07:52.293Z,42.30
2022-11-29T05:10:44.183Z,41.22
2022-11-29T05:13:34.701Z,40.53
2022-11-29T05:16:17.003Z,43.15
2022-11-29T05:18:44.939Z,41.97
2022-11-29T05:21:37.818Z,45.78
2022-11-29T05:24:24.336Z,41.47
2022-11-29T05:27:06.658Z,44.08
2022-11-29T05:30:07.211Z,42.20
2022-11-29T05:32:51.991Z,43.88
2022-11-29T05:35:53.484Z,37.83
2022-11-29T05:38:20.533Z,45.55
2022-11-29T05:41:00.499Z,40.97
2022-11-29T05:43:46.244Z,42.77
2022-11-29T05:46:34.298Z,40.20
2022-11-29T05:49:10.459Z,43.20
2022-11-29T05:52:25.318Z,44.22
2022-11-29T05:55:17.561Z,40.43
2022-11-29T05:57:56.008Z,29.95
2022-11-29T06:00:28.035Z,43.35
2022-11-29T06:03:09.439Z,44.45
2022-11-29T06:06:00.952Z,41.30
2022-11-29T06:09:22.016Z,42.25
2022-11-29T06:11:56.969Z,36.50
2022-11-29T06:14:45.303Z,39.50
2022-11-29T06:17:37.248Z,42.55
2022-11-29T06:20:25.938Z,41.58
2022-11-29T06:23:28.777Z,41.72
2022-11-29T06:26:03.509Z,44.22
2022-11-29T06:28:49.354Z,43.08
2022-11-29T06:31:28.782Z,41.03
2022-11-29T06:34:06.722Z,41.55
2022-11-29T06:36:46.502Z,35.35
2022-11-29T06:39:21.871Z,41.83
2022-11-29T06:41:50.125Z,38.85
2022-11-29T06:44:17.807Z,41.00
2022-11-29T06:46:52.516Z,38.03
2022-11-29T06:49:27.824Z,41.78
2022-11-29T06:51:55.135Z,40.17
2022-11-29T06:54:25.272Z,39.67
2022-11-29T06:56:58.233Z,37.05
2022-11-29T06:59:50.890Z,41.85
2022-11-29T07:02:25.134Z,36.70
2022-11-29T07:05:14.184Z,42.35
2022-11-29T07:07:42.807Z,39.20
2022-11-29T07:10:22.249Z,44.58
2022-11-29T07:12:55.906Z,44.03
2022-11-29T07:15:42.340Z,47.45
2022-11-29T07:19:01.530Z,46.10
2022-11-29T07:21:37.512Z,53.40
2022-11-29T07:24:42.227Z,59.35
2022-11-29T07:27:25.240Z,57.72
2022-11-29T07:30:19.515Z,52.72
2022-11-29T07:32:57.246Z,44.72
2022-11-29T07:36:00.726Z,44.53
2022-11-29T07:38:49.444Z,45.30
2022-11-29T07:41:24.722Z,42.75
2022-11-29T07:44:21.574Z,38.50
2022-11-29T07:46:48.919Z,40.85
2022-11-29T07:49:18.345Z,40.08
2022-11-29T07:51:45.536Z,33.95
2022-11-29T07:54:18.062Z,37.85
2022-11-29T07:56:45.481Z,41.57
2022-11-29T07:59:13.271Z,41.13
2022-11-29T08:01:40.486Z,41.30
2022-11-29T08:04:09.030Z,36.38
2022-11-29T08:06:36.930Z,41.03
2022-11-29T08:09:04.596Z,40.05
2022-11-29T08:11:32.676Z,42.33
2022-11-29T08:14:01.305Z,39.97
2022-11-29T08:16:28.658Z,40.92
2022-11-29T08:18:55.695Z,39.83
2022-11-29T08:21:24.618Z,38.65
2022-11-29T08:23:52.281Z,39.78
2022-11-29T08:26:20.939Z,38.22
2022-11-29T08:29:00.219Z,38.60
2022-11-29T08:31:27.188Z,39.40
2022-11-29T08:33:55.659Z,37.30
2022-11-29T08:36:23.625Z,38.85
2022-11-29T08:38:54.165Z,29.85
2022-11-29T08:41:26.289Z,35.50
2022-11-29T08:43:53.231Z,35.90
2022-11-29T08:46:20.775Z,35.50
2022-11-29T08:48:48.793Z,34.20
2022-11-29T08:51:16.035Z,37.03
2022-11-29T08:53:43.676Z,36.80
2022-11-29T08:56:53.499Z,36.28
2022-11-29T08:59:01.515Z,36.45
2022-11-29T09:01:29.590Z,33.90
2022-11-29T09:03:59.867Z,34.60
2022-11-29T09:06:41.295Z,33.55
2022-11-29T09:09:08.890Z,32.95
2022-11-29T09:11:36.973Z,30.90
2022-11-29T09:14:06.595Z,33.88
2022-11-29T09:16:37.063Z,33.72
2022-11-29T09:19:08.086Z,32.80
2022-11-29T09:21:37.265Z,35.25
2022-11-29T09:24:06.764Z,30.27
2022-11-29T09:26:36.057Z,31.95
2022-11-29T09:29:05.561Z,29.35
2022-11-29T09:31:33.203Z,31.75
2022-11-29T09:34:00.839Z,34.47
2022-11-29T09:36:29.724Z,34.30
2022-11-29T09:38:57.979Z,33.65
2022-11-29T09:42:02.614Z,29.50
2022-11-29T09:44:41.288Z,31.48
2022-11-29T09:47:23.130Z,31.55
2022-11-29T09:50:03.964Z,31.80
2022-11-29T09:52:44.345Z,31.52
2022-11-29T09:55:26.595Z,29.45
2022-11-29T09:57:55.690Z,29.90
2022-11-29T10:00:22.881Z,31.00
2022-11-29T10:03:17.903Z,27.70
2022-11-29T10:05:50.539Z,29.25
2022-11-29T10:08:42.587Z,31.50
2022-11-29T10:11:20.518Z,20.17
2022-11-29T10:14:00.500Z,28.88
2022-11-29T10:17:06.534Z,23.27
2022-11-29T10:19:38.483Z,29.77
2022-11-29T10:22:49.608Z,31.20
2022-11-29T10:25:26.164Z,30.58
2022-11-29T10:27:54.733Z,29.50
2022-11-29T10:30:22.631Z,27.45
2022-11-29T10:32:56.684Z,26.67
2022-11-29T10:35:24.723Z,25.63
2022-11-29T10:38:22.594Z,29.27
2022-11-29T10:40:47.199Z,25.23
2022-11-29T10:43:14.622Z,29.00
2022-11-29T10:45:50.863Z,26.67
2022-11-29T10:48:21.297Z,29.88
2022-11-29T10:50:50.656Z,28.83
2022-11-29T10:53:32.250Z,29.95
2022-11-29T10:59:05.337Z,29.88
2022-11-29T11:01:38.662Z,29.27
2022-11-29T11:04:35.623Z,28.95
2022-11-29T11:07:06.182Z,26.38
2022-11-29T11:09:47.427Z,26.13
2022-11-29T11:12:14.824Z,22.83
2022-11-29T11:14:42.783Z,21.48
2022-11-29T11:17:21.051Z,21.23
2022-11-29T11:20:04.855Z,22.02
2022-11-29T11:22:34.227Z,24.42
2022-11-29T11:25:24.521Z,24.00
2022-11-29T11:27:52.364Z,24.13
2022-11-29T11:30:24.980Z,22.08
2022-11-29T11:33:25.359Z,23.70
2022-11-29T11:36:21.962Z,18.50
2022-11-29T11:39:10.554Z,20.55
2022-11-29T11:42:05.736Z,22.48
2022-11-29T11:44:47.703Z,20.70
2022-11-29T11:47:27.780Z,18.83
2022-11-29T11:50:03.954Z,15.52
2022-11-29T11:52:50.908Z,22.48
2022-11-29T11:55:19.361Z,18.65
2022-11-29T11:57:57.697Z,22.25
2022-11-29T12:01:04.059Z,19.77
2022-11-29T12:03:53.031Z,21.98
2022-11-29T12:06:44.237Z,21.33
2022-11-29T12:09:11.458Z,17.95
2022-11-29T12:11:51.614Z,14.80
2022-11-29T12:15:03.778Z,19.98
2022-11-29T12:17:41.510Z,19.77
2022-11-29T12:20:22.767Z,16.48
2022-11-29T12:23:13.885Z,15.45
2022-11-29T12:25:47.149Z,14.60
2022-11-29T12:28:20.684Z,14.20
2022-11-29T12:31:02.510Z,9.20
2022-11-29T12:33:30.618Z,12.20
2022-11-29T12:36:13.360Z,13.30
2022-11-29T12:39:03.902Z,14.68
2022-11-29T12:41:51.004Z,13.88
2022-11-29T12:44:39.261Z,11.52
2022-11-29T12:47:37.147Z,14.02
2022-11-29T12:50:22.600Z,11.73
2022-11-29T12:53:27.421Z,14.45
2022-11-29T12:56:19.085Z,12.48
2022-11-29T12:59:04.942Z,12.85
2022-11-29T13:01:37.940Z,13.45
2022-11-29T13:04:23.879Z,13.35
2022-11-29T13:07:22.364Z,13.30
2022-11-29T13:10:28.352Z,14.02
2022-11-29T13:13:13.492Z,10.10
2022-11-29T13:15:52.409Z,13.23
2022-11-29T13:18:50.136Z,14.10
2022-11-29T13:21:23.239Z,13.88
2022-11-29T13:24:09.672Z,14.90
2022-11-29T13:26:40.298Z,13.90
2022-11-29T13:29:13.014Z,15.27
2022-11-29T13:31:40.515Z,24.90
2022-11-29T13:34:24.071Z,16.00
2022-11-29T13:37:08.421Z,15.30
2022-11-29T13:39:59.226Z,15.50
2022-11-29T13:42:38.733Z,15.63
2022-11-29T13:45:27.417Z,15.75
2022-11-29T13:48:00.256Z,13.05
2022-11-29T13:50:39.481Z,14.90
2022-11-29T13:53:23.988Z,27.45
2022-11-29T13:56:02.959Z,21.08
2022-11-29T13:58:39.319Z,15.57
2022-11-29T14:01:13.517Z,14.75
2022-11-29T14:03:45.711Z,14.93
2022-11-29T14:06:14.681Z,15.18
2022-11-29T14:09:21.153Z,15.55
2022-11-29T14:12:27.482Z,14.60
2022-11-29T14:15:04.732Z,13.90
2022-11-29T14:17:51.346Z,14.50
2022-11-29T14:20:28.716Z,15.63
2022-11-29T14:23:31.746Z,14.82
2022-11-29T14:25:59.818Z,16.15
2022-11-29T14:28:41.151Z,16.80
2022-11-29T14:31:09.968Z,16.25
2022-11-29T14:34:00.713Z,13.98
2022-11-29T14:36:38.470Z,17.23
2022-11-29T14:39:19.511Z,16.02
2022-11-29T14:41:56.223Z,16.98
2022-11-29T14:44:29.744Z,16.65
2022-11-29T14:49:47.322Z,18.73
2022-11-29T14:52:14.742Z,16.80
2022-11-29T14:55:05.791Z,17.75
2022-11-29T14:57:48.242Z,15.55
2022-11-29T15:00:20.612Z,17.30
2022-11-29T15:02:59.320Z,17.60
2022-11-29T15:05:46.803Z,16.27
2022-11-29T15:08:19.548Z,18.15
2022-11-29T15:11:02.192Z,19.05
2022-11-29T15:13:36.732Z,17.98
2022-11-29T15:16:33.407Z,19.58
2022-11-29T15:19:29.230Z,17.35
2022-11-29T15:22:14.989Z,17.70
2022-11-29T15:25:02.913Z,19.10
2022-11-29T15:27:39.970Z,19.70
2022-11-29T15:30:21.059Z,19.10
2022-11-29T15:32:50.201Z,19.65
2022-11-29T15:35:20.004Z,18.92
2022-11-29T15:37:50.152Z,18.92
2022-11-29T15:40:20.057Z,19.60
2022-11-29T15:43:14.076Z,19.85
2022-11-29T15:48:26.705Z,20.13
2022-11-29T15:51:00.111Z,19.70
2022-11-29T15:53:39.764Z,21.13
2022-11-29T15:56:17.820Z,20.63
2022-11-29T15:58:48.556Z,19.20
2022-11-29T16:01:21.223Z,19.92
2022-11-29T16:03:53.830Z,21.35
2022-11-29T16:06:28.212Z,21.03
2022-11-29T16:08:55.679Z,21.00
2022-11-29T16:11:28.105Z,21.45
2022-11-29T16:14:13.120Z,21.60
2022-11-29T16:16:43.420Z,23.13
2022-11-29T16:19:39.120Z,24.63
2022-11-29T16:22:15.050Z,25.58
2022-11-29T16:24:54.068Z,26.60
2022-11-29T16:27:23.154Z,25.58
2022-11-29T16:29:55.284Z,27.90
2022-11-29T16:32:32.103Z,30.00
2022-11-29T16:35:15.454Z,32.33
2022-11-29T16:37:44.799Z,34.65
2022-11-29T16:40:24.688Z,35.03
2022-11-29T16:43:04.365Z,36.10
2022-11-29T16:45:37.284Z,37.55
2022-11-29T16:48:22.458Z,38.05
2022-11-29T16:51:08.760Z,38.08
2022-11-29T16:53:42.853Z,40.40
2022-11-29T16:56:16.512Z,39.40
2022-11-29T17:01:34.290Z,42.53
2022-11-29T17:04:01.832Z,44.85
2022-11-29T17:06:30.587Z,45.03
2022-11-29T17:09:00.044Z,49.58
2022-11-29T17:11:28.054Z,45.92
2022-11-29T17:13:55.233Z,51.08
2022-11-29T17:16:24.808Z,57.10
2022-11-29T17:18:55.180Z,57.50
2022-11-29T17:21:28.189Z,66.35
2022-11-29T17:23:55.726Z,91.88
2022-11-29T17:26:24.815Z,88.28
2022-11-29T17:28:52.490Z,97.15
2022-11-29T17:31:23.140Z,95.97
2022-11-29T17:33:57.224Z,79.50
2022-11-29T17:36:24.462Z,65.72
2022-11-29T17:38:51.930Z,70.25
2022-11-29T17:41:23.258Z,58.55
2022-11-29T17:43:52.417Z,46.50
2022-11-29T17:46:23.358Z,46.25
2022-11-29T17:49:10.694Z,37.70
2022-11-29T17:51:54.428Z,44.10
2022-11-29T17:54:23.399Z,46.35
2022-11-29T17:56:52.519Z,55.10
2022-11-29T17:59:20.414Z,46.38
2022-11-29T18:01:49.080Z,43.78
2022-11-29T18:04:16.266Z,43.35
2022-11-29T18:06:46.144Z,43.65
2022-11-29T18:09:13.715Z,45.33
2022-11-29T18:11:48.660Z,44.08
2022-11-29T18:14:24.082Z,45.97
2022-11-29T18:16:53.603Z,49.38
2022-11-29T18:19:22.664Z,49.55
2022-11-29T18:21:51.674Z,49.75
2022-11-29T18:24:22.804Z,49.58
2022-11-29T18:26:51.220Z,51.00
2022-11-29T18:29:18.722Z,53.92
2022-11-29T18:31:46.717Z,54.40
2022-11-29T18:34:16.917Z,56.63
2022-11-29T18:36:48.845Z,59.58
2022-11-29T18:39:19.096Z,61.40
2022-11-29T18:41:50.961Z,55.03
2022-11-29T18:44:20.783Z,59.10
2022-11-29T18:46:48.721Z,58.55
2022-11-29T18:49:18.754Z,66.28
2022-11-29T18:51:47.529Z,65.22
2022-11-29T18:54:17.144Z,71.75
2022-11-29T18:56:46.280Z,69.95
2022-11-29T18:59:19.896Z,68.97
2022-11-29T19:01:50.741Z,71.72
2022-11-29T19:04:20.822Z,68.68
2022-11-29T19:06:48.719Z,71.75
2022-11-29T19:09:24.056Z,73.90
2022-11-29T19:12:04.445Z,69.47
2022-11-29T19:14:33.055Z,66.25
2022-11-29T19:17:00.996Z,63.47
2022-11-29T19:19:28.988Z,64.88
2022-11-29T19:21:56.882Z,64.20
2022-11-29T19:24:25.955Z,65.60
2022-11-29T19:26:56.507Z,63.53
2022-11-29T19:29:24.006Z,62.33
2022-11-29T19:31:51.507Z,61.90
2022-11-29T19:34:19.340Z,60.45
2022-11-29T19:36:47.419Z,62.80
2022-11-29T19:39:17.600Z,62.58
2022-11-29T19:41:49.223Z,62.75
2022-11-29T19:44:16.900Z,54.83
2022-11-29T19:46:49.337Z,62.13
2022-11-29T19:49:16.924Z,59.45
2022-11-29T19:51:45.238Z,62.08
2022-11-29T19:54:12.845Z,62.75
2022-11-29T19:56:40.427Z,63.67
2022-11-29T19:59:10.046Z,61.88
2022-11-29T20:01:42.647Z,64.07
2022-11-29T20:04:17.463Z,61.40
2022-11-29T20:06:46.795Z,62.97
2022-11-29T20:09:15.160Z,63.70
2022-11-29T20:11:43.140Z,64.15
2022-11-29T20:14:12.624Z,64.30
2022-11-29T20:16:41.063Z,65.85
2022-11-29T20:19:18.436Z,63.58
2022-11-29T20:21:49.649Z,61.95
2022-11-29T20:24:18.459Z,66.88
2022-11-29T20:26:48.277Z,68.85
2022-11-29T20:29:23.660Z,64.90
2022-11-29T20:31:54.205Z,68.55
2022-11-29T20:34:21.855Z,66.30
2022-11-29T20:37:19.262Z,68.00
2022-11-29T20:39:50.151Z,68.40
2022-11-29T20:42:38.372Z,64.72
2022-11-29T20:45:09.043Z,69.07
2022-11-29T20:47:52.766Z,66.70
2022-11-29T20:50:26.770Z,67.97
2022-11-29T20:53:13.877Z,66.95
2022-11-29T20:55:47.729Z,73.57
2022-11-29T20:58:18.959Z,73.05
2022-11-29T21:00:47.281Z,72.07
2022-11-29T21:03:16.174Z,75.35
2022-11-29T21:05:44.574Z,72.60
2022-11-29T21:08:13.865Z,74.65
2022-11-29T21:10:43.637Z,74.63
2022-11-29T21:13:13.205Z,76.45
2022-11-29T21:15:42.283Z,78.35
2022-11-29T21:18:26.784Z,76.22
2022-11-29T21:21:17.056Z,77.90
2022-11-29T21:24:06.958Z,78.90
2022-11-29T21:26:45.010Z,78.40
2022-11-29T21:29:20.524Z,80.45
2022-11-29T21:31:51.255Z,79.22
2022-11-29T21:34:19.704Z,78.97
2022-11-29T21:36:56.511Z,81.13
2022-11-29T21:39:34.407Z,78.28
2022-11-29T21:42:03.173Z,80.72
2022-11-29T21:44:31.516Z,79.32
2022-11-29T21:46:58.513Z,77.43
2022-11-29T21:49:26.036Z,74.85
2022-11-29T21:51:53.347Z,80.30
2022-11-29T21:54:20.400Z,79.20
2022-11-29T21:56:47.815Z,79.65
2022-11-29T21:59:14.891Z,76.05
2022-11-29T22:01:44.384Z,77.07
2022-11-29T22:04:11.890Z,75.38
2022-11-29T22:06:39.409Z,76.20
2022-11-29T22:09:07.961Z,72.88
2022-11-29T22:11:35.633Z,74.82
2022-11-29T22:14:14.558Z,73.25
2022-11-29T22:16:48.234Z,77.75
2022-11-29T22:19:18.739Z,78.65
2022-11-29T22:21:50.275Z,79.32
2022-11-29T22:24:19.666Z,80.47
2022-11-29T22:26:48.285Z,83.47
2022-11-29T22:29:15.945Z,81.65
2022-11-29T22:31:44.519Z,82.47
2022-11-29T22:34:11.978Z,82.85
2022-11-29T22:36:40.244Z,80.15
2022-11-29T22:39:09.308Z,83.03
2022-11-29T22:41:38.334Z,81.78
2022-11-29T22:44:06.322Z,84.40
2022-11-29T22:46:35.953Z,77.57
2022-11-29T22:49:04.353Z,80.28
2022-11-29T22:51:34.279Z,82.47
2022-11-29T22:54:04.404Z,84.35
2022-11-29T22:56:34.602Z,83.68
2022-11-29T22:59:02.070Z,92.40
2022-11-29T23:01:30.867Z,86.75
2022-11-29T23:04:01.418Z,80.68
2022-11-29T23:06:40.936Z,86.85
2022-11-29T23:09:16.690Z,86.53
2022-11-29T23:11:45.735Z,83.50
2022-11-29T23:14:12.869Z,90.10
2022-11-29T23:16:41.827Z,90.43
2022-11-29T23:19:09.272Z,69.15
2022-11-29T23:21:39.329Z,85.88
2022-11-29T23:24:07.025Z,85.55
2022-11-29T23:26:40.380Z,89.32
2022-11-29T23:29:13.755Z,90.78
2022-11-29T23:31:42.485Z,92.60
2022-11-29T23:34:16.281Z,93.00
2022-11-29T23:36:49.787Z,95.57
2022-11-29T23:39:20.224Z,89.53
2022-11-29T23:41:49.551Z,88.70
2022-11-29T23:44:16.491Z,95.65
2022-11-29T23:46:43.869Z,99.60
2022-11-29T23:49:13.895Z,92.47
2022-11-29T23:51:42.952Z,97.40
2022-11-29T23:54:11.356Z,95.53
2022-11-29T23:56:38.360Z,91.30
2022-11-29T23:59:06.916Z,89.05
